Time;durP1;ratioP1;P1;durP2;ratioP2;P2;SDS_P1;SDS_P2;PMS_P1;PMS_P2;Temp;Humidity;BMP_temperature;BMP_pressure;BME280_temperature;BME280_humidity;BME280_pressure;Samples;Min_cycle;Max_cycle;Signal;HPM_P1;HPM_P2
2020/12/31 00:01:49;;;;;;;6.50;5.90;;;3.60;99.90;;;;;;4997371;28;20977;-90
2020/12/31 00:04:19;;;;;;;7.83;7.20;;;3.60;99.90;;;;;;5005399;28;21306;-89
2020/12/31 00:06:45;;;;;;;6.40;5.90;;;3.60;99.90;;;;;;4999052;28;20624;-89
2020/12/31 00:09:18;;;;;;;5.37;4.87;;;3.50;99.90;;;;;;5001047;28;20636;-89
2020/12/31 00:11:45;;;;;;;5.90;5.40;;;3.60;99.90;;;;;;5018317;28;20636;-93
2020/12/31 00:14:12;;;;;;;5.27;4.87;;;3.60;99.90;;;;;;5010404;28;20625;-94
2020/12/31 00:16:38;;;;;;;4.73;4.43;;;3.60;99.90;;;;;;5003124;28;20637;-93
2020/12/31 00:19:05;;;;;;;4.90;4.53;;;3.60;99.90;;;;;;5013817;28;20691;-92
2020/12/31 00:21:32;;;;;;;4.90;4.50;;;3.60;99.90;;;;;;4994448;28;21010;-92
2020/12/31 00:23:59;;;;;;;5.20;4.80;;;3.50;99.90;;;;;;5005415;28;20645;-91
2020/12/31 00:26:29;;;;;;;5.13;4.63;;;3.40;99.90;;;;;;5002106;28;20647;-94
2020/12/31 00:28:58;;;;;;;5.93;5.50;;;3.40;99.90;;;;;;5010108;28;20644;-95
2020/12/31 00:31:24;;;;;;;5.97;5.57;;;3.60;99.90;;;;;;4999977;28;20660;-92
2020/12/31 00:33:51;;;;;;;6.00;5.50;;;3.60;99.90;;;;;;5006056;28;20643;-93
2020/12/31 00:36:20;;;;;;;6.00;5.50;;;3.50;99.90;;;;;;5004937;28;20914;-90
2020/12/31 00:38:51;;;;;;;5.40;4.97;;;3.50;99.90;;;;;;5004775;28;20734;-91
2020/12/31 00:41:18;;;;;;;6.37;5.87;;;3.50;99.90;;;;;;5001342;28;21336;-91
2020/12/31 00:43:48;;;;;;;5.90;5.30;;;3.40;99.90;;;;;;5000162;28;20647;-90
2020/12/31 00:46:15;;;;;;;6.40;5.80;;;3.40;99.90;;;;;;5001829;28;20652;-91
2020/12/31 00:48:43;;;;;;;7.57;6.87;;;3.30;99.90;;;;;;5004180;28;21246;-90
2020/12/31 00:51:09;;;;;;;7.23;6.63;;;3.10;99.90;;;;;;5003767;28;20663;-91
2020/12/31 00:53:36;;;;;;;7.60;6.90;;;3.10;99.90;;;;;;5002782;28;20646;-92
2020/12/31 00:56:02;;;;;;;5.93;5.43;;;3.00;99.90;;;;;;5004334;28;20640;-90
2020/12/31 00:58:29;;;;;;;5.57;5.07;;;2.90;99.90;;;;;;5002790;28;20696;-89
2020/12/31 01:00:57;;;;;;;6.27;5.83;;;2.80;99.90;;;;;;5004779;28;20687;-90
2020/12/31 01:03:23;;;;;;;6.47;5.97;;;2.70;99.90;;;;;;5000319;28;20660;-88
2020/12/31 01:05:49;;;;;;;7.73;7.03;;;2.70;99.90;;;;;;4998701;28;20656;-89
2020/12/31 01:08:16;;;;;;;7.77;7.17;;;2.70;99.90;;;;;;4995772;28;20640;-91
2020/12/31 01:10:49;;;;;;;6.63;6.03;;;2.70;99.90;;;;;;5004266;28;20743;-91
2020/12/31 01:13:16;;;;;;;7.40;6.70;;;2.70;99.90;;;;;;5003631;28;20697;-90
2020/12/31 01:15:45;;;;;;;6.57;6.07;;;2.60;99.90;;;;;;5005044;28;20678;-91
2020/12/31 01:18:12;;;;;;;6.57;6.03;;;2.60;99.90;;;;;;5004051;28;20681;-90
2020/12/31 01:20:39;;;;;;;5.93;5.53;;;2.40;99.90;;;;;;5006475;28;20651;-91
2020/12/31 01:23:06;;;;;;;6.60;6.10;;;2.40;99.90;;;;;;5004563;28;20625;-91
2020/12/31 01:25:34;;;;;;;6.80;6.10;;;2.40;99.90;;;;;;5010938;28;20657;-91
2020/12/31 01:28:01;;;;;;;6.87;6.33;;;2.40;99.90;;;;;;5010314;28;20642;-92
2020/12/31 01:30:27;;;;;;;5.50;5.10;;;2.20;99.90;;;;;;5007607;28;20697;-92
2020/12/31 01:32:54;;;;;;;6.40;5.57;;;2.30;99.90;;;;;;5009718;28;21241;-91
2020/12/31 01:35:21;;;;;;;6.30;5.80;;;2.30;99.90;;;;;;5004358;28;20689;-91
2020/12/31 01:37:49;;;;;;;6.30;5.80;;;2.50;99.90;;;;;;5012293;28;20681;-93
2020/12/31 01:40:16;;;;;;;6.80;6.20;;;2.50;99.90;;;;;;5006213;28;20779;-92
2020/12/31 01:42:45;;;;;;;5.00;4.60;;;2.40;99.90;;;;;;5004907;28;20629;-91
2020/12/31 01:45:12;;;;;;;5.40;4.90;;;2.20;99.90;;;;;;5006336;28;20641;-91
2020/12/31 01:47:45;;;;;;;6.70;6.10;;;2.40;99.90;;;;;;5005268;28;20640;-91
2020/12/31 01:50:15;;;;;;;6.57;5.97;;;2.20;99.90;;;;;;5007647;28;20751;-91
2020/12/31 01:52:49;;;;;;;6.30;5.90;;;2.20;99.90;;;;;;5008011;28;20644;-91
2020/12/31 01:55:17;;;;;;;5.27;4.87;;;2.20;99.90;;;;;;5007624;28;21185;-91
2020/12/31 01:57:44;;;;;;;5.70;5.20;;;2.20;99.90;;;;;;5000848;28;20673;-90
2020/12/31 02:00:19;;;;;;;7.73;6.47;;;2.10;99.90;;;;;;5007721;28;20688;-90
2020/12/31 02:02:45;;;;;;;8.27;6.23;;;2.20;99.90;;;;;;5002110;28;20657;-91
2020/12/31 02:05:12;;;;;;;8.13;7.33;;;2.20;99.90;;;;;;5001422;28;20638;-91
2020/12/31 02:07:38;;;;;;;7.57;6.87;;;2.20;99.90;;;;;;5005503;28;20633;-90
2020/12/31 02:10:05;;;;;;;6.87;6.33;;;2.30;99.90;;;;;;5002226;28;21233;-90
2020/12/31 02:12:33;;;;;;;7.53;6.77;;;2.40;99.90;;;;;;5003235;28;21159;-91
2020/12/31 02:14:59;;;;;;;5.67;5.17;;;2.40;99.90;;;;;;5008311;28;20722;-91
2020/12/31 02:17:25;;;;;;;6.03;5.53;;;2.20;99.90;;;;;;5006822;28;20670;-91
2020/12/31 02:19:52;;;;;;;5.73;5.30;;;2.20;99.90;;;;;;5003569;28;20674;-91
2020/12/31 02:22:20;;;;;;;5.70;5.20;;;2.10;99.90;;;;;;5005402;28;20660;-90
2020/12/31 02:24:46;;;;;;;5.17;4.77;;;2.00;99.90;;;;;;5003386;28;20936;-92
2020/12/31 02:27:13;;;;;;;5.60;5.20;;;2.10;99.90;;;;;;5002120;28;20635;-91
2020/12/31 02:29:39;;;;;;;6.53;5.97;;;2.20;99.90;;;;;;5008746;28;20669;-91
2020/12/31 02:32:06;;;;;;;6.17;5.67;;;2.20;99.90;;;;;;5005398;28;21070;-90
2020/12/31 02:34:32;;;;;;;5.77;5.27;;;2.30;99.90;;;;;;5007106;28;20639;-90
2020/12/31 02:37:09;;;;;;;8.00;6.40;;;2.20;99.90;;;;;;5007529;28;20644;-92
2020/12/31 02:39:36;;;;;;;6.63;6.00;;;2.20;99.90;;;;;;5007818;28;20988;-91
2020/12/31 02:42:02;;;;;;;6.73;5.90;;;2.20;99.90;;;;;;5004638;28;20697;-91
2020/12/31 02:44:29;;;;;;;6.37;5.70;;;2.30;99.90;;;;;;5008975;28;20727;-90
2020/12/31 02:46:56;;;;;;;5.90;5.40;;;2.20;99.90;;;;;;5004960;28;20641;-91
2020/12/31 02:49:23;;;;;;;6.23;5.73;;;2.20;99.90;;;;;;5004259;28;20632;-91
2020/12/31 02:51:49;;;;;;;6.20;5.70;;;2.30;99.90;;;;;;5000155;28;20702;-90
2020/12/31 02:54:18;;;;;;;6.33;5.73;;;2.30;99.90;;;;;;5003638;28;20653;-90
2020/12/31 02:56:45;;;;;;;6.10;5.60;;;2.30;99.90;;;;;;5000094;28;20636;-90
2020/12/31 02:59:13;;;;;;;5.80;5.30;;;2.30;99.90;;;;;;5000570;28;20676;-91
2020/12/31 03:01:40;;;;;;;6.10;5.60;;;2.20;99.90;;;;;;5007213;28;21299;-93
2020/12/31 03:04:06;;;;;;;6.13;5.53;;;2.20;99.90;;;;;;5000336;28;20655;-92
2020/12/31 03:06:32;;;;;;;5.63;5.20;;;2.10;99.90;;;;;;5003363;28;20982;-92
2020/12/31 03:08:59;;;;;;;6.00;5.40;;;2.20;99.90;;;;;;5000778;28;21239;-94
2020/12/31 03:11:29;;;;;;;6.20;5.70;;;2.10;99.90;;;;;;5007271;28;20677;-92
2020/12/31 03:13:56;;;;;;;5.37;4.87;;;2.10;99.90;;;;;;5004384;28;20632;-93
2020/12/31 03:16:24;;;;;;;4.90;4.50;;;2.10;99.90;;;;;;5005224;28;20638;-91
2020/12/31 03:18:51;;;;;;;6.10;5.60;;;2.00;99.90;;;;;;5002645;28;20671;-91
2020/12/31 03:21:18;;;;;;;5.67;5.20;;;2.00;99.90;;;;;;4997346;28;20674;-92
2020/12/31 03:23:44;;;;;;;5.83;5.33;;;1.90;99.90;;;;;;5010898;28;20672;-92
2020/12/31 03:26:11;;;;;;;6.43;6.00;;;1.90;99.90;;;;;;5007799;28;20648;-91
2020/12/31 03:28:38;;;;;;;8.13;7.53;;;1.80;99.90;;;;;;5006018;28;21144;-91
2020/12/31 03:31:11;;;;;;;6.57;6.07;;;1.60;99.90;;;;;;5011665;28;20662;-91
2020/12/31 03:33:37;;;;;;;5.87;5.37;;;1.60;99.90;;;;;;5023064;28;20641;-91
2020/12/31 03:36:04;;;;;;;4.93;4.63;;;1.50;99.90;;;;;;5024504;28;20710;-91
2020/12/31 03:38:32;;;;;;;6.30;5.80;;;1.40;99.90;;;;;;5025216;28;20656;-91
2020/12/31 03:40:59;;;;;;;6.10;5.60;;;1.30;99.90;;;;;;5009235;28;20711;-91
2020/12/31 03:43:31;;;;;;;5.30;4.90;;;1.40;99.90;;;;;;4998587;28;20642;-90
2020/12/31 03:46:03;;;;;;;5.17;4.67;;;1.30;99.90;;;;;;5004456;28;20644;-90
2020/12/31 03:48:36;;;;;;;5.70;5.30;;;1.20;99.90;;;;;;5002336;28;21405;-91
2020/12/31 03:51:02;;;;;;;5.60;5.07;;;1.20;99.90;;;;;;5007070;28;20727;-92
2020/12/31 03:53:30;;;;;;;4.73;4.33;;;1.10;99.90;;;;;;5006131;28;20640;-91
2020/12/31 03:55:56;;;;;;;5.37;4.97;;;1.10;99.90;;;;;;5000876;28;21147;-91
2020/12/31 03:58:24;;;;;;;6.07;5.57;;;1.10;99.90;;;;;;4996515;28;20677;-91
2020/12/31 04:00:51;;;;;;;5.20;4.70;;;0.90;99.90;;;;;;5005142;28;20661;-90
2020/12/31 04:03:17;;;;;;;5.43;5.03;;;0.80;99.90;;;;;;5004743;28;20645;-89
2020/12/31 04:05:46;;;;;;;5.83;5.13;;;0.80;99.90;;;;;;5000535;28;20648;-89
2020/12/31 04:08:13;;;;;;;4.90;4.50;;;0.80;99.90;;;;;;4998936;28;20675;-90
2020/12/31 04:10:39;;;;;;;5.53;5.13;;;0.80;99.90;;;;;;5007246;28;20664;-91
2020/12/31 04:13:06;;;;;;;5.10;4.70;;;0.90;99.90;;;;;;5005231;28;20647;-90
2020/12/31 04:15:32;;;;;;;5.37;4.97;;;0.70;99.90;;;;;;5006712;28;21071;-90
2020/12/31 04:18:06;;;;;;;6.00;5.03;;;0.70;99.90;;;;;;5000203;28;20691;-90
2020/12/31 04:20:33;;;;;;;5.47;4.97;;;0.70;99.90;;;;;;5002484;28;21389;-89
2020/12/31 04:23:00;;;;;;;5.60;5.10;;;0.60;99.90;;;;;;5003374;28;21030;-90
2020/12/31 04:25:26;;;;;;;6.20;5.60;;;0.60;99.90;;;;;;5001906;28;21183;-90
2020/12/31 04:27:54;;;;;;;5.70;5.20;;;0.60;99.90;;;;;;5003895;28;20639;-91
2020/12/31 04:30:20;;;;;;;5.67;5.23;;;0.50;99.90;;;;;;5026130;28;20724;-90
2020/12/31 04:32:46;;;;;;;5.33;4.83;;;0.50;99.90;;;;;;5018822;28;21108;-90
2020/12/31 04:35:14;;;;;;;5.83;5.33;;;0.40;99.90;;;;;;5025347;28;21186;-90
2020/12/31 04:37:40;;;;;;;6.13;5.63;;;0.50;99.90;;;;;;5020491;28;20670;-90
2020/12/31 04:40:07;;;;;;;5.30;4.80;;;0.50;99.90;;;;;;5009078;28;20663;-91
2020/12/31 04:42:35;;;;;;;4.70;4.30;;;0.40;99.90;;;;;;5003683;28;20653;-91
2020/12/31 04:45:02;;;;;;;4.50;4.10;;;0.40;99.90;;;;;;5015600;28;20723;-90
2020/12/31 04:47:36;;;;;;;5.17;4.67;;;0.40;99.90;;;;;;5021038;28;20670;-89
2020/12/31 04:50:03;;;;;;;5.07;4.67;;;0.30;99.90;;;;;;5003890;28;20948;-90
2020/12/31 04:52:33;;;;;;;4.40;4.00;;;0.40;99.90;;;;;;5010334;28;20668;-90
2020/12/31 04:55:02;;;;;;;4.80;4.40;;;0.40;99.90;;;;;;5019110;28;20632;-91
2020/12/31 04:57:30;;;;;;;4.70;4.30;;;0.50;99.90;;;;;;5012691;28;20628;-90
2020/12/31 04:59:58;;;;;;;5.10;4.70;;;0.40;99.90;;;;;;5003172;28;20668;-90
2020/12/31 05:02:25;;;;;;;4.90;4.50;;;0.40;99.90;;;;;;5009130;28;20671;-91
2020/12/31 05:04:52;;;;;;;5.53;5.03;;;0.30;99.90;;;;;;5003116;28;20652;-91
2020/12/31 05:07:20;;;;;;;4.60;4.20;;;0.30;99.90;;;;;;5004390;28;20665;-91
2020/12/31 05:10:11;;;;;;;5.17;4.77;;;0.30;99.90;;;;;;5001324;28;20767;-90
2020/12/31 05:12:39;;;;;;;4.83;4.43;;;0.30;99.90;;;;;;5002936;28;20655;-89
2020/12/31 05:15:08;;;;;;;5.20;4.77;;;0.20;99.90;;;;;;5001574;28;20647;-93
2020/12/31 05:17:44;;;;;;;4.50;4.20;;;0.10;99.90;;;;;;5002597;28;20645;-93
2020/12/31 05:20:14;;;;;;;5.20;4.70;;;0.10;99.90;;;;;;5004587;28;20660;-93
2020/12/31 05:22:43;;;;;;;5.90;5.40;;;0.20;99.90;;;;;;5008369;28;20659;-91
2020/12/31 05:25:10;;;;;;;7.00;6.40;;;0.30;99.90;;;;;;5009368;28;20631;-92
2020/12/31 05:27:36;;;;;;;5.60;5.10;;;0.30;99.90;;;;;;5009165;28;20628;-91
2020/12/31 05:30:05;;;;;;;5.70;5.20;;;0.30;99.90;;;;;;5004194;28;20710;-92
2020/12/31 05:32:34;;;;;;;5.23;4.73;;;0.20;99.90;;;;;;5004557;28;20635;-91
2020/12/31 05:35:01;;;;;;;6.10;5.47;;;0.20;99.90;;;;;;5001565;28;21178;-92
2020/12/31 05:37:30;;;;;;;6.50;5.20;;;0.10;99.90;;;;;;5019867;28;20692;-92
2020/12/31 05:39:59;;;;;;;6.27;5.67;;;0.10;99.90;;;;;;5022617;28;20698;-91
2020/12/31 05:42:27;;;;;;;4.83;4.43;;;0.10;99.90;;;;;;5023968;28;20636;-92
2020/12/31 05:45:07;;;;;;;5.00;4.60;;;0.10;99.90;;;;;;5016123;28;20632;-94
2020/12/31 05:47:36;;;;;;;4.80;4.43;;;0.10;99.90;;;;;;5023951;28;20604;-92
2020/12/31 05:50:27;;;;;;;5.00;4.60;;;0.10;99.90;;;;;;5025301;28;21272;-94
2020/12/31 05:52:57;;;;;;;5.47;4.97;;;0.00;99.90;;;;;;5019044;28;21143;-96
2020/12/31 05:55:25;;;;;;;16.33;13.37;;;0.00;99.90;;;;;;5013556;28;20657;-94
2020/12/31 05:57:55;;;;;;;7.43;5.47;;;0.00;99.90;;;;;;5008174;28;20778;-93
2020/12/31 06:00:25;;;;;;;5.17;4.67;;;0.10;99.90;;;;;;5012928;28;20702;-93
2020/12/31 06:02:53;;;;;;;6.07;5.57;;;0.10;99.90;;;;;;5004086;28;20632;-93
2020/12/31 06:05:20;;;;;;;5.97;5.37;;;0.10;99.90;;;;;;5003586;28;20640;-91
2020/12/31 06:07:49;;;;;;;6.00;5.50;;;0.10;99.90;;;;;;5010086;28;20636;-94
2020/12/31 06:10:25;;;;;;;5.17;4.77;;;0.10;99.90;;;;;;5005257;28;20750;-94
2020/12/31 06:12:59;;;;;;;6.43;5.73;;;0.00;99.90;;;;;;5002604;28;21044;-92
2020/12/31 06:15:33;;;;;;;6.13;5.23;;;0.10;99.90;;;;;;4999392;28;20640;-93
2020/12/31 06:18:02;;;;;;;6.10;5.60;;;0.10;99.90;;;;;;5001505;28;20669;-94
2020/12/31 06:20:30;;;;;;;5.50;5.10;;;-0.10;99.90;;;;;;5007055;28;21300;-93
2020/12/31 06:23:03;;;;;;;5.37;4.93;;;0.10;99.90;;;;;;5011702;28;20743;-94
2020/12/31 06:25:48;;;;;;;5.90;5.40;;;0.10;99.90;;;;;;5005358;28;20766;-93
2020/12/31 06:28:24;;;;;;;6.47;5.43;;;0.20;99.90;;;;;;5004492;28;20636;-95
2020/12/31 06:30:57;;;;;;;5.37;4.90;;;0.00;99.90;;;;;;5014785;28;20635;-93
2020/12/31 06:33:26;;;;;;;6.77;6.17;;;0.00;99.90;;;;;;5006922;28;20710;-95
2020/12/31 06:35:57;;;;;;;6.17;5.67;;;0.10;99.90;;;;;;5002280;28;20635;-94
2020/12/31 06:38:33;;;;;;;5.80;5.30;;;0.00;99.90;;;;;;5007040;28;20679;-95
2020/12/31 06:41:38;;;;;;;6.10;5.50;;;0.00;99.90;;;;;;5012472;28;20646;-96
2020/12/31 06:44:15;;;;;;;11.43;10.23;;;0.00;99.90;;;;;;5006216;28;20646;-94
2020/12/31 06:46:44;;;;;;;8.63;7.30;;;-0.10;99.90;;;;;;5008373;28;21071;-94
2020/12/31 06:49:12;;;;;;;8.67;7.87;;;0.00;99.90;;;;;;5024879;28;20690;-92
2020/12/31 06:51:40;;;;;;;6.50;6.00;;;0.00;99.90;;;;;;5029137;28;20636;-95
2020/12/31 06:54:06;;;;;;;5.70;5.10;;;0.10;99.90;;;;;;5020190;28;20653;-92
2020/12/31 06:56:45;;;;;;;5.57;5.17;;;0.20;99.90;;;;;;5019734;28;20625;-93
2020/12/31 06:59:31;;;;;;;6.20;5.70;;;0.30;99.90;;;;;;5006319;28;20703;-93
2020/12/31 07:02:20;;;;;;;5.77;5.27;;;0.20;99.90;;;;;;5010604;28;20748;-94
2020/12/31 07:04:46;;;;;;;5.60;5.10;;;0.20;99.90;;;;;;5018239;28;20638;-96
2020/12/31 07:07:47;;;;;;;5.87;5.30;;;0.20;99.90;;;;;;5027575;28;20648;-96
2020/12/31 07:10:20;;;;;;;7.00;6.30;;;0.20;99.90;;;;;;5160613;22;20656;-96
2020/12/31 07:25:44;;;;;;;5.97;5.47;;;0.10;99.90;;;;;;5029001;28;20667;-95
2020/12/31 07:28:20;;;;;;;6.53;5.90;;;0.20;99.90;;;;;;5030645;28;20639;-93
2020/12/31 07:30:53;;;;;;;7.60;6.90;;;0.20;99.90;;;;;;5027269;28;20666;-91
2020/12/31 07:33:34;;;;;;;6.40;5.83;;;0.30;99.90;;;;;;5023320;28;20639;-90
2020/12/31 07:36:12;;;;;;;7.57;6.87;;;0.30;99.90;;;;;;5023411;28;21006;-91
2020/12/31 07:38:40;;;;;;;10.33;9.37;;;0.30;99.90;;;;;;5020410;28;20664;-92
2020/12/31 07:41:18;;;;;;;9.03;7.13;;;0.30;99.90;;;;;;5017197;28;20635;-91
2020/12/31 07:43:44;;;;;;;8.00;7.30;;;0.50;99.90;;;;;;5011454;28;20663;-90
2020/12/31 07:46:14;;;;;;;6.80;6.30;;;0.50;99.90;;;;;;5021208;28;20647;-89
2020/12/31 07:48:40;;;;;;;7.57;6.97;;;0.60;99.90;;;;;;5012777;28;21178;-92
2020/12/31 07:51:09;;;;;;;8.20;7.50;;;0.80;99.90;;;;;;5025884;28;20639;-91
2020/12/31 07:53:35;;;;;;;8.73;7.97;;;0.90;99.90;;;;;;5021971;28;20750;-92
2020/12/31 07:56:11;;;;;;;8.30;7.60;;;1.00;99.90;;;;;;5027044;28;21226;-92
2020/12/31 07:58:42;;;;;;;7.70;7.10;;;1.10;99.90;;;;;;5022260;28;20739;-92
2020/12/31 08:01:23;;;;;;;8.13;7.33;;;1.20;99.90;;;;;;5023292;28;20623;-92
2020/12/31 08:03:52;;;;;;;7.67;6.97;;;1.30;99.90;;;;;;5022065;28;20655;-92
2020/12/31 08:06:27;;;;;;;8.57;7.87;;;1.30;99.90;;;;;;5026289;28;20647;-93
2020/12/31 08:08:56;;;;;;;8.20;7.40;;;1.50;99.90;;;;;;5025682;28;20623;-92
2020/12/31 08:11:23;;;;;;;7.50;6.90;;;1.60;99.90;;;;;;5020863;28;20679;-89
2020/12/31 08:14:01;;;;;;;7.50;6.80;;;1.60;99.90;;;;;;5019044;28;20660;-89
2020/12/31 08:16:28;;;;;;;8.30;7.60;;;1.70;99.90;;;;;;5016434;28;20631;-90
2020/12/31 08:18:57;;;;;;;8.27;7.57;;;1.80;99.90;;;;;;5013446;28;20664;-88
2020/12/31 08:21:24;;;;;;;10.57;9.67;;;1.90;99.90;;;;;;5024461;28;20776;-90
2020/12/31 08:24:03;;;;;;;8.20;7.50;;;2.10;99.90;;;;;;5021849;28;20822;-89
2020/12/31 08:26:32;;;;;;;9.00;8.20;;;2.20;99.90;;;;;;5021358;28;20647;-88
2020/12/31 08:29:06;;;;;;;8.60;7.80;;;2.20;99.90;;;;;;5020049;28;21260;-89
2020/12/31 08:31:34;;;;;;;9.23;8.27;;;2.20;99.90;;;;;;4993288;28;20623;-88
2020/12/31 08:34:03;;;;;;;8.40;7.70;;;2.20;99.90;;;;;;4996317;28;20711;-89
2020/12/31 08:36:29;;;;;;;9.10;8.30;;;2.30;99.90;;;;;;5021675;28;21367;-90
2020/12/31 08:39:00;;;;;;;9.37;8.37;;;2.40;99.90;;;;;;5021280;28;21241;-88
2020/12/31 08:41:26;;;;;;;10.03;8.97;;;2.50;99.90;;;;;;5017559;28;20646;-89
2020/12/31 08:43:53;;;;;;;9.30;8.40;;;2.60;99.90;;;;;;5016751;28;20654;-90
2020/12/31 08:46:22;;;;;;;9.00;8.30;;;2.90;99.90;;;;;;5020395;28;20644;-90
2020/12/31 08:48:55;;;;;;;12.43;11.33;;;2.60;99.90;;;;;;5022350;28;20648;-89
2020/12/31 08:51:25;;;;;;;10.97;9.97;;;2.70;99.90;;;;;;5017166;28;20640;-91
2020/12/31 08:53:53;;;;;;;10.00;9.10;;;2.60;99.90;;;;;;5022654;28;20749;-91
2020/12/31 08:56:26;;;;;;;10.47;9.50;;;2.70;99.90;;;;;;5019081;28;20646;-91
2020/12/31 08:59:07;;;;;;;9.60;8.70;;;2.80;99.90;;;;;;5023681;28;20681;-87
2020/12/31 09:01:33;;;;;;;9.73;8.77;;;2.80;99.90;;;;;;5024683;28;20644;-90
2020/12/31 09:04:07;;;;;;;10.23;9.23;;;2.90;99.90;;;;;;5023192;28;20673;-89
2020/12/31 09:06:34;;;;;;;9.90;8.90;;;2.90;99.90;;;;;;5020335;28;20650;-90
2020/12/31 09:09:01;;;;;;;11.13;10.13;;;2.90;99.90;;;;;;5013509;28;20728;-90
2020/12/31 09:11:29;;;;;;;10.23;9.27;;;3.00;99.90;;;;;;5021758;28;20644;-90
2020/12/31 09:14:11;;;;;;;11.57;10.57;;;3.10;99.90;;;;;;5022922;28;20666;-91
2020/12/31 09:16:37;;;;;;;10.10;9.20;;;3.20;99.90;;;;;;5003407;28;20620;-91
2020/12/31 09:19:04;;;;;;;9.40;8.67;;;3.20;99.90;;;;;;5023897;28;20679;-88
2020/12/31 09:21:30;;;;;;;9.70;8.90;;;3.20;99.90;;;;;;5022332;28;21238;-90
2020/12/31 09:23:57;;;;;;;22.53;10.03;;;3.30;99.90;;;;;;5022101;28;20669;-91
2020/12/31 09:26:27;;;;;;;9.93;9.10;;;3.30;99.90;;;;;;5023830;28;20630;-91
2020/12/31 09:28:56;;;;;;;10.70;9.73;;;3.30;99.90;;;;;;5034981;28;20616;-92
2020/12/31 09:31:24;;;;;;;10.47;9.43;;;3.40;99.90;;;;;;5024637;28;20647;-91
2020/12/31 09:36:49;;;;;;;11.10;10.00;;;3.40;99.90;;;;;;5042364;28;20670;-95
2020/12/31 09:39:15;;;;;;;10.90;10.00;;;3.50;99.90;;;;;;5042356;28;20834;-93
2020/12/31 09:41:42;;;;;;;9.80;8.90;;;3.50;99.90;;;;;;5034635;28;20731;-94
2020/12/31 09:44:08;;;;;;;9.67;8.87;;;3.60;99.90;;;;;;5025224;28;20662;-94
2020/12/31 09:46:39;;;;;;;10.27;9.47;;;3.70;99.90;;;;;;5026410;28;20658;-92
2020/12/31 09:49:05;;;;;;;10.83;9.83;;;3.70;99.90;;;;;;5044007;28;20654;-89
2020/12/31 09:51:39;;;;;;;9.57;8.83;;;3.70;99.90;;;;;;5046157;28;20702;-93
2020/12/31 09:54:10;;;;;;;9.37;8.57;;;3.80;99.90;;;;;;5052539;28;20756;-89
2020/12/31 09:56:36;;;;;;;9.10;8.30;;;4.00;99.90;;;;;;5036911;28;20615;-90
2020/12/31 09:59:03;;;;;;;9.20;8.50;;;4.00;99.90;;;;;;5042003;28;20663;-90
2020/12/31 10:01:29;;;;;;;9.80;8.90;;;4.10;99.90;;;;;;5032356;28;20638;-90
2020/12/31 10:03:59;;;;;;;10.00;9.20;;;4.10;99.90;;;;;;5029652;28;20756;-90
2020/12/31 10:06:25;;;;;;;12.17;9.53;;;4.20;99.90;;;;;;5025439;28;20224;-89
2020/12/31 10:08:53;;;;;;;10.70;9.70;;;4.20;99.90;;;;;;5026376;28;20636;-90
2020/12/31 10:11:21;;;;;;;10.50;9.70;;;4.30;99.90;;;;;;5030605;28;20661;-90
2020/12/31 10:13:50;;;;;;;9.63;8.83;;;4.20;99.90;;;;;;5029132;28;20655;-90
2020/12/31 10:16:17;;;;;;;11.00;10.10;;;4.20;99.90;;;;;;5046090;28;20694;-87
2020/12/31 10:18:44;;;;;;;10.07;9.20;;;4.20;99.90;;;;;;5039568;28;20660;-90
2020/12/31 10:21:13;;;;;;;9.87;9.03;;;4.20;99.90;;;;;;5004405;28;20642;-90
2020/12/31 10:23:40;;;;;;;9.30;8.60;;;4.30;99.90;;;;;;5019953;28;20667;-90
2020/12/31 10:26:08;;;;;;;9.77;8.87;;;4.40;99.90;;;;;;5024155;28;20656;-90
2020/12/31 10:28:35;;;;;;;9.73;8.90;;;4.40;99.90;;;;;;5023850;28;20646;-90
2020/12/31 10:31:01;;;;;;;8.77;8.07;;;4.50;99.90;;;;;;5000218;28;20655;-89
2020/12/31 10:33:28;;;;;;;9.30;8.60;;;4.60;99.90;;;;;;5023328;28;20629;-90
2020/12/31 10:35:56;;;;;;;10.13;9.13;;;4.80;99.90;;;;;;5026544;28;20664;-89
2020/12/31 10:38:23;;;;;;;12.03;10.27;;;5.10;99.90;;;;;;4995762;28;20676;-87
2020/12/31 10:40:49;;;;;;;9.63;8.83;;;5.20;99.90;;;;;;5020350;28;21172;-89
2020/12/31 10:43:19;;;;;;;12.00;10.90;;;5.30;99.90;;;;;;5020260;28;20689;-88
2020/12/31 10:45:45;;;;;;;10.37;9.37;;;5.30;99.90;;;;;;5020521;28;20649;-87
2020/12/31 10:48:13;;;;;;;10.43;9.33;;;5.20;99.90;;;;;;5009263;28;20646;-89
2020/12/31 10:50:41;;;;;;;9.10;8.30;;;5.10;99.90;;;;;;5019712;28;20671;-90
2020/12/31 10:53:10;;;;;;;10.10;9.20;;;5.20;99.90;;;;;;5018946;28;20635;-90
2020/12/31 10:55:37;;;;;;;8.13;7.33;;;5.30;99.90;;;;;;5006728;28;20643;-90
2020/12/31 10:58:04;;;;;;;9.77;8.77;;;5.20;99.90;;;;;;5020671;28;20638;-89
2020/12/31 11:00:31;;;;;;;8.70;8.00;;;5.20;99.90;;;;;;5008940;28;21412;-88
2020/12/31 11:02:59;;;;;;;8.57;7.80;;;5.10;99.90;;;;;;5017934;28;20730;-89
2020/12/31 11:05:26;;;;;;;8.93;8.23;;;5.00;99.90;;;;;;5016505;28;20669;-89
2020/12/31 11:07:55;;;;;;;7.50;6.90;;;4.70;99.90;;;;;;5016717;28;20655;-89
2020/12/31 11:10:21;;;;;;;6.73;6.23;;;4.60;99.90;;;;;;5026597;28;20646;-89
2020/12/31 11:12:51;;;;;;;7.60;6.80;;;4.60;99.90;;;;;;5023794;28;20631;-89
2020/12/31 11:15:18;;;;;;;6.70;6.10;;;4.70;99.90;;;;;;5015869;28;20641;-88
2020/12/31 11:17:47;;;;;;;7.70;6.90;;;4.60;99.90;;;;;;5018460;28;20670;-90
2020/12/31 11:20:15;;;;;;;7.03;6.37;;;4.60;99.90;;;;;;5013417;28;20760;-90
2020/12/31 11:22:42;;;;;;;7.03;6.43;;;4.50;99.90;;;;;;5021106;28;20645;-89
2020/12/31 11:25:09;;;;;;;7.23;6.17;;;4.60;99.90;;;;;;5021089;28;20659;-88
2020/12/31 11:27:35;;;;;;;6.60;6.10;;;4.50;99.90;;;;;;5022792;28;20750;-89
2020/12/31 11:30:09;;;;;;;7.77;7.17;;;4.50;99.90;;;;;;5025009;28;20675;-91
2020/12/31 11:32:37;;;;;;;6.00;5.57;;;4.60;99.90;;;;;;5025641;28;20647;-92
2020/12/31 11:35:06;;;;;;;6.63;5.93;;;4.70;99.90;;;;;;5023940;28;20633;-89
2020/12/31 11:37:37;;;;;;;6.77;6.07;;;4.60;99.90;;;;;;5020845;28;21222;-90
2020/12/31 11:40:04;;;;;;;6.23;5.73;;;4.70;99.90;;;;;;5017733;28;21212;-89
2020/12/31 11:42:35;;;;;;;6.20;5.70;;;4.80;99.90;;;;;;5028962;28;20632;-89
2020/12/31 11:45:03;;;;;;;6.07;5.57;;;4.90;99.90;;;;;;5023948;28;20640;-91
2020/12/31 11:47:30;;;;;;;6.37;5.80;;;5.00;99.90;;;;;;5022933;28;20663;-89
2020/12/31 11:49:57;;;;;;;7.27;6.67;;;4.90;99.90;;;;;;5021886;28;20883;-89
2020/12/31 11:52:24;;;;;;;6.80;6.17;;;4.80;99.90;;;;;;5018516;28;20641;-89
2020/12/31 11:54:52;;;;;;;6.97;6.37;;;4.90;99.90;;;;;;5004482;28;20643;-89
2020/12/31 11:57:19;;;;;;;7.33;6.67;;;4.90;99.90;;;;;;5000822;28;20659;-90
2020/12/31 11:59:45;;;;;;;6.33;5.83;;;5.10;99.90;;;;;;5017654;28;21242;-89
2020/12/31 12:02:12;;;;;;;7.03;6.43;;;5.20;99.90;;;;;;5019091;28;20630;-90
2020/12/31 12:04:42;;;;;;;6.70;6.20;;;5.20;99.90;;;;;;5020870;28;20627;-89
2020/12/31 12:07:09;;;;;;;5.17;4.77;;;5.30;99.90;;;;;;5024001;28;20682;-89
2020/12/31 12:09:40;;;;;;;5.90;5.40;;;5.40;99.90;;;;;;5015904;28;20633;-89
2020/12/31 12:12:08;;;;;;;5.30;4.87;;;5.30;99.90;;;;;;5002256;28;20645;-89
2020/12/31 12:14:35;;;;;;;7.30;5.90;;;5.40;99.90;;;;;;5019290;28;20633;-89
2020/12/31 12:17:01;;;;;;;5.20;4.77;;;5.40;99.90;;;;;;5015267;28;20686;-89
2020/12/31 12:19:28;;;;;;;5.30;4.90;;;5.30;99.90;;;;;;5021487;28;20685;-90
2020/12/31 12:21:58;;;;;;;5.93;5.30;;;5.30;99.90;;;;;;5019103;28;20667;-89
2020/12/31 12:24:25;;;;;;;6.03;5.53;;;5.40;99.90;;;;;;5020157;28;20700;-89
2020/12/31 12:26:51;;;;;;;5.80;5.30;;;5.30;99.90;;;;;;5012214;28;20745;-89
2020/12/31 12:29:20;;;;;;;6.43;5.80;;;5.40;99.90;;;;;;5026146;28;20635;-90
2020/12/31 12:31:46;;;;;;;5.57;5.17;;;5.40;99.90;;;;;;5017686;28;21163;-89
2020/12/31 12:34:13;;;;;;;6.60;5.90;;;5.40;99.90;;;;;;5020127;28;20652;-90
2020/12/31 12:36:39;;;;;;;5.83;5.37;;;5.40;99.90;;;;;;5016133;28;24674;-90
2020/12/31 12:39:07;;;;;;;6.50;6.00;;;5.40;99.90;;;;;;5017426;28;20684;-89
2020/12/31 12:41:39;;;;;;;6.73;6.10;;;5.30;99.90;;;;;;5016661;28;20703;-89
2020/12/31 12:44:06;;;;;;;6.20;5.60;;;5.40;99.90;;;;;;5019805;28;20634;-89
2020/12/31 12:46:33;;;;;;;5.90;5.40;;;5.40;99.90;;;;;;5013761;28;20661;-90
2020/12/31 12:49:01;;;;;;;6.10;5.60;;;5.40;99.90;;;;;;5012435;28;20657;-90
2020/12/31 12:51:44;;;;;;;7.13;6.53;;;5.30;99.90;;;;;;5001568;28;20644;-89
2020/12/31 12:54:12;;;;;;;9.57;8.80;;;5.20;99.90;;;;;;5017728;28;21208;-89
2020/12/31 12:56:51;;;;;;;6.47;5.87;;;5.00;99.90;;;;;;5019681;28;20655;-89
2020/12/31 12:59:17;;;;;;;6.77;6.17;;;4.90;99.90;;;;;;5000732;28;20731;-89
2020/12/31 13:01:44;;;;;;;8.50;7.80;;;4.90;99.90;;;;;;5013538;28;20637;-89
2020/12/31 13:04:11;;;;;;;8.90;8.07;;;5.00;99.90;;;;;;5017561;28;20626;-90
2020/12/31 13:06:37;;;;;;;7.10;6.50;;;5.00;99.90;;;;;;5019083;28;20680;-89
2020/12/31 13:09:06;;;;;;;8.47;6.70;;;5.00;99.90;;;;;;5018508;28;20644;-90
2020/12/31 13:11:33;;;;;;;6.50;6.00;;;5.00;99.90;;;;;;5015046;28;21057;-90
2020/12/31 13:13:59;;;;;;;6.00;5.60;;;5.10;99.90;;;;;;5021990;28;21230;-89
2020/12/31 13:16:26;;;;;;;10.77;9.77;;;5.10;99.90;;;;;;5021816;28;20701;-89
2020/12/31 13:18:53;;;;;;;7.60;6.87;;;5.10;99.90;;;;;;5016535;28;20672;-89
2020/12/31 13:21:20;;;;;;;6.70;5.73;;;5.00;99.90;;;;;;5018279;28;20643;-90